»·PEaware :: N878FA KKNB-KLGB

N878FA :: KKNB-KLGB

FLIGHT INFORMATION

Flight Status: Arrived
Operator: Privately registered:
United States
More flights under this callsign
Pilot: D V. (24879)
Aircraft: CESSNA 182 SKYLANE
(C182)
More flights by this aircraft type
Origin: KKNB Kanab Mun
United States
Destination: KLGB Long Beach
United States
More flights between these airports :: More routes between these airports
Route:
File this flight plan on PilotEdge
Remarks:
Altitude:
(Current/Filed)
8,500ft
Speed:
(Current/Filed)
125kts
Departed: 16-Aug-20 03:11 PM
Arrived: 16-Aug-20 05:41 PM
Distance/Time
Traveled:
335nm/2:30
Distance/Time
To Go:
Arrived

Flight Plot

Page will automatically refresh every two minutes.


Map Options




Map Legend


Flown Route
Filed Route
Departure Airport
Arrival Airport
Navaid (VOR, NDB)
Fix

Horizontal Profiles

Position Reports

Time Latitude Longitude Heading Altitude Ground
Speed
16-Aug-20 15:06 37.010733 -112.529111 343 4844ft 0kts
16-Aug-20 15:07 37.011250 -112.530459 352 4839ft 6kts
16-Aug-20 15:08 37.012703 -112.530499 15 4842ft 17kts
16-Aug-20 15:09 37.018363 -112.527598 297 4858ft 5kts
16-Aug-20 15:10 37.003910 -112.534657 198 5227ft 96kts
16-Aug-20 15:11 36.976359 -112.544897 205 6146ft 104kts
16-Aug-20 15:12 36.950216 -112.563817 193 6713ft 112kts
16-Aug-20 15:13 36.921352 -112.576851 216 7374ft 97kts
16-Aug-20 15:14 36.899975 -112.605247 232 7881ft 115kts
16-Aug-20 15:15 36.876816 -112.632156 220 8478ft 123kts
16-Aug-20 15:16 36.849280 -112.662410 222 8612ft 144kts
16-Aug-20 15:17 36.825959 -112.684357 218 8746ft 143kts
16-Aug-20 15:18 36.813806 -112.729682 275 8682ft 144kts
16-Aug-20 15:19 36.805229 -112.779396 239 8599ft 156kts
16-Aug-20 15:20 36.783353 -112.826005 243 8580ft 154kts
16-Aug-20 15:21 36.763839 -112.874180 248 8521ft 156kts
16-Aug-20 15:22 36.742488 -112.921492 238 8471ft 157kts
16-Aug-20 15:23 36.718844 -112.966697 235 8484ft 154kts
16-Aug-20 15:24 36.692356 -113.009217 233 8457ft 155kts
16-Aug-20 15:25 36.669338 -113.054598 245 8441ft 154kts
16-Aug-20 15:26 36.655220 -113.105058 244 8438ft 153kts
16-Aug-20 15:27 36.628536 -113.146931 230 8400ft 154kts
16-Aug-20 15:28 36.599842 -113.186194 227 8383ft 152kts
16-Aug-20 15:29 36.570195 -113.224508 226 8483ft 148kts
16-Aug-20 15:30 36.540610 -113.261594 224 8533ft 152kts
16-Aug-20 15:32 36.510000 -113.298169 224 8613ft 152kts
16-Aug-20 15:33 36.480400 -113.335952 226 8632ft 154kts
16-Aug-20 15:34 36.451062 -113.374852 228 8642ft 154kts
16-Aug-20 15:35 36.431820 -113.401163 228 8648ft 153kts
16-Aug-20 15:36 36.402249 -113.441668 228 8365ft 164kts
16-Aug-20 15:37 36.372333 -113.482432 228 8290ft 159kts
16-Aug-20 15:38 36.343154 -113.522356 228 8255ft 155kts
16-Aug-20 15:39 36.314374 -113.561262 228 8291ft 150kts
16-Aug-20 15:40 36.285558 -113.600225 228 8249ft 152kts
16-Aug-20 15:41 36.257981 -113.637821 229 8392ft 149kts
16-Aug-20 15:42 36.230367 -113.676452 228 8497ft 145kts
16-Aug-20 15:43 36.203247 -113.714439 228 8530ft 151kts
16-Aug-20 15:44 36.175360 -113.753480 229 8531ft 151kts
16-Aug-20 15:45 36.147283 -113.792857 229 8526ft 152kts
16-Aug-20 15:46 36.119357 -113.832346 229 8527ft 153kts
16-Aug-20 15:46 36.096328 -113.864666 229 8537ft 148kts
16-Aug-20 15:48 36.064817 -113.909147 229 8541ft 146kts
16-Aug-20 15:49 36.037777 -113.946463 227 8557ft 145kts
16-Aug-20 15:49 36.015062 -113.977140 227 8569ft 145kts
16-Aug-20 15:50 35.987206 -114.012566 205 8564ft 145kts
16-Aug-20 15:51 35.952877 -114.038342 218 8571ft 145kts
16-Aug-20 15:53 35.918264 -114.077837 225 8547ft 146kts
16-Aug-20 15:53 35.894702 -114.104941 206 8534ft 145kts
16-Aug-20 15:54 35.862568 -114.134366 218 8513ft 146kts
16-Aug-20 15:55 35.831927 -114.167483 225 8505ft 147kts
16-Aug-20 15:56 35.803763 -114.204202 228 8507ft 147kts
16-Aug-20 15:57 35.776879 -114.241971 230 8508ft 147kts
16-Aug-20 15:58 35.750406 -114.280220 230 8520ft 146kts
16-Aug-20 15:59 35.724160 -114.318547 230 8522ft 146kts
16-Aug-20 16:00 35.697998 -114.356904 230 8520ft 146kts
16-Aug-20 16:01 35.671721 -114.395465 230 8504ft 147kts
16-Aug-20 16:02 35.660135 -114.412457 229 8489ft 148kts
16-Aug-20 16:03 35.633304 -114.451790 229 8431ft 151kts
16-Aug-20 16:04 35.606168 -114.491445 230 8395ft 151kts
16-Aug-20 16:05 35.579115 -114.530985 230 8375ft 151kts
16-Aug-20 16:06 35.552150 -114.570360 230 8359ft 150kts
16-Aug-20 16:07 35.525119 -114.609790 230 8348ft 150kts
16-Aug-20 16:08 35.498173 -114.649043 230 8337ft 150kts
16-Aug-20 16:09 35.471153 -114.687929 229 8330ft 150kts
16-Aug-20 16:10 35.444197 -114.726910 229 8329ft 149kts
16-Aug-20 16:11 35.417549 -114.765548 229 8389ft 147kts
16-Aug-20 16:12 35.390858 -114.804234 229 8389ft 149kts
16-Aug-20 16:13 35.363950 -114.843216 229 8386ft 150kts
16-Aug-20 16:14 35.336985 -114.882244 229 8385ft 149kts
16-Aug-20 16:15 35.310900 -114.919920 229 8552ft 144kts
16-Aug-20 16:16 35.284485 -114.958045 229 8558ft 148kts
16-Aug-20 16:17 35.257685 -114.996723 229 8566ft 149kts
16-Aug-20 16:18 35.230856 -115.035387 229 8570ft 149kts
16-Aug-20 16:19 35.203956 -115.074105 229 8563ft 149kts
16-Aug-20 16:20 35.177026 -115.112815 229 8561ft 149kts
16-Aug-20 16:21 35.150242 -115.151273 229 8560ft 148kts
16-Aug-20 16:22 35.126023 -115.191670 254 8565ft 150kts
16-Aug-20 16:23 35.114785 -115.240928 252 8572ft 150kts
16-Aug-20 16:24 35.102874 -115.289547 252 8585ft 149kts
16-Aug-20 16:25 35.090595 -115.337990 251 8591ft 149kts
16-Aug-20 16:26 35.078149 -115.386405 251 8593ft 149kts
16-Aug-20 16:27 35.065657 -115.434712 251 8591ft 149kts
16-Aug-20 16:28 35.053112 -115.483022 251 8601ft 148kts
16-Aug-20 16:29 35.040624 -115.530994 252 8620ft 148kts
16-Aug-20 16:30 35.027969 -115.579603 252 8123ft 151kts
16-Aug-20 16:31 35.015280 -115.627601 253 7465ft 147kts
16-Aug-20 16:32 35.002140 -115.674560 249 6839ft 146kts
16-Aug-20 16:33 34.994830 -115.721047 257 6549ft 128kts
16-Aug-20 16:34 34.986246 -115.761061 254 6493ft 115kts
16-Aug-20 16:35 34.977346 -115.797650 253 6473ft 110kts
16-Aug-20 16:36 34.968389 -115.832636 252 6477ft 106kts
16-Aug-20 16:37 34.959388 -115.866966 252 6458ft 107kts
16-Aug-20 16:38 34.950239 -115.901455 252 6375ft 114kts
16-Aug-20 16:39 34.939918 -115.940459 252 6926ft 120kts
16-Aug-20 16:40 34.929463 -115.979663 252 7510ft 123kts
16-Aug-20 16:41 34.918822 -116.019362 252 8089ft 125kts
16-Aug-20 16:42 34.908198 -116.058836 252 8738ft 121kts
16-Aug-20 16:43 34.897442 -116.098808 252 8996ft 147kts
16-Aug-20 16:44 34.884006 -116.147712 252 8666ft 150kts
16-Aug-20 16:45 34.871032 -116.195514 252 8657ft 148kts
16-Aug-20 16:46 34.858120 -116.243045 252 8645ft 148kts
16-Aug-20 16:47 34.845137 -116.290757 252 8631ft 148kts
16-Aug-20 16:48 34.832070 -116.338693 252 8620ft 149kts
16-Aug-20 16:49 34.818962 -116.386713 252 8606ft 149kts
16-Aug-20 16:50 34.805777 -116.434907 252 8601ft 149kts
16-Aug-20 16:51 34.791162 -116.482227 247 8601ft 149kts
16-Aug-20 16:52 34.774163 -116.528515 245 8600ft 149kts
16-Aug-20 16:53 34.756688 -116.574324 245 8600ft 149kts
16-Aug-20 16:54 34.739359 -116.620215 246 8602ft 149kts
16-Aug-20 16:55 34.721942 -116.666254 245 8601ft 149kts
16-Aug-20 16:56 34.704351 -116.712506 245 8605ft 153kts
16-Aug-20 16:57 34.686209 -116.760563 245 8612ft 157kts
16-Aug-20 16:58 34.667943 -116.808984 245 8612ft 158kts
16-Aug-20 16:59 34.649563 -116.857646 245 8614ft 158kts
16-Aug-20 17:00 34.635179 -116.908171 250 8619ft 158kts
16-Aug-20 17:01 34.618960 -116.958379 248 8476ft 163kts
16-Aug-20 17:02 34.601708 -117.008106 245 8470ft 158kts
16-Aug-20 17:03 34.584357 -117.056596 244 8487ft 153kts
16-Aug-20 17:04 34.567902 -117.102047 243 8500ft 143kts
16-Aug-20 17:05 34.552011 -117.145660 241 8505ft 140kts
16-Aug-20 17:06 34.519604 -117.148610 171 8494ft 127kts
16-Aug-20 17:07 34.486115 -117.170005 208 8218ft 147kts
16-Aug-20 17:08 34.451094 -117.196356 209 7764ft 148kts
16-Aug-20 17:09 34.416160 -117.222627 209 7316ft 147kts
16-Aug-20 17:10 34.381476 -117.248667 209 6877ft 145kts
16-Aug-20 17:11 34.347039 -117.274105 207 6433ft 144kts
16-Aug-20 17:12 34.312897 -117.297506 207 6451ft 138kts
16-Aug-20 17:13 34.280171 -117.322555 232 6479ft 144kts
16-Aug-20 17:14 34.260717 -117.365725 239 6498ft 147kts
16-Aug-20 17:15 34.245308 -117.411291 236 6454ft 149kts
16-Aug-20 17:16 34.220789 -117.449473 225 6423ft 141kts
16-Aug-20 17:17 34.198124 -117.488376 242 6200ft 143kts
16-Aug-20 17:18 34.183640 -117.530103 242 6424ft 134kts
16-Aug-20 17:19 34.168598 -117.570131 246 6543ft 127kts
16-Aug-20 17:20 34.157342 -117.609392 247 6615ft 123kts
16-Aug-20 17:21 34.145611 -117.648426 246 6427ft 123kts
16-Aug-20 17:22 34.132059 -117.686493 246 6098ft 130kts
16-Aug-20 17:23 34.128634 -117.732019 268 5576ft 136kts
16-Aug-20 17:24 34.135396 -117.777960 278 5018ft 138kts
16-Aug-20 17:26 34.132018 -117.822097 258 4469ft 130kts
16-Aug-20 17:27 34.127715 -117.865934 266 3815ft 134kts
16-Aug-20 17:28 34.110686 -117.901399 220 3253ft 126kts
16-Aug-20 17:29 34.083655 -117.927202 215 2762ft 121kts
16-Aug-20 17:30 34.054520 -117.947122 209 2484ft 117kts
16-Aug-20 17:31 34.025521 -117.963965 196 2317ft 112kts
16-Aug-20 17:32 33.996779 -117.977945 204 2209ft 112kts
16-Aug-20 17:33 33.973675 -118.002318 229 2243ft 102kts
16-Aug-20 17:34 33.951170 -118.024840 206 2195ft 110kts
16-Aug-20 17:35 33.927374 -118.047837 223 2325ft 109kts
16-Aug-20 17:36 33.906161 -118.074624 217 2185ft 112kts
16-Aug-20 17:37 33.880143 -118.095583 203 1816ft 112kts
16-Aug-20 17:38 33.849943 -118.101530 188 1260ft 110kts
16-Aug-20 17:39 33.821541 -118.111559 209 754ft 99kts
16-Aug-20 17:40 33.813908 -118.137574 265 205ft 76kts
16-Aug-20 17:41 33.813886 -118.156255 269 48ft 22kts
16-Aug-20 17:41 33.813408 -118.157275 188 50ft 0kts
16-Aug-20 17:43 33.812628 -118.158714 95 52ft 0kts
16-Aug-20 17:44 33.812628 -118.158715 95 52ft 0kts
16-Aug-20 17:44 33.812628 -118.158715 95 52ft 0kts

Navigation Log

Ident Type
Flight plan parsing failed, navigation log unavailable